Time;durP1;ratioP1;P1;durP2;ratioP2;P2;SDS_P1;SDS_P2;PMS_P1;PMS_P2;Temp;Humidity;BMP_temperature;BMP_pressure;BME280_temperature;BME280_humidity;BME280_pressure;Samples;Min_cycle;Max_cycle;Signal;HPM_P1;HPM_P2
2023/06/30 00:00:54;;;;;;;0.00;0.00;;;14.30;99.90;;;;;;5147384;27;20575;-69
2023/06/30 00:03:22;;;;;;;0.00;0.00;;;14.30;99.90;;;;;;5120002;27;20053;-68
2023/06/30 00:05:48;;;;;;;0.05;0.05;;;14.30;99.90;;;;;;5122311;27;20042;-69
2023/06/30 00:08:13;;;;;;;0.28;0.28;;;14.30;99.90;;;;;;5121031;27;20470;-69
2023/06/30 00:10:39;;;;;;;5.15;1.17;;;14.20;99.90;;;;;;5148505;27;20072;-69
2023/06/30 00:13:04;;;;;;;0.00;0.00;;;14.20;99.90;;;;;;5141086;27;20071;-69
2023/06/30 00:15:30;;;;;;;0.10;0.10;;;14.20;99.90;;;;;;5146106;27;20039;-69
2023/06/30 00:17:56;;;;;;;0.00;0.00;;;14.20;99.90;;;;;;5142449;27;20034;-69
2023/06/30 00:20:23;;;;;;;0.40;0.40;;;14.20;99.90;;;;;;5144834;27;20046;-69
2023/06/30 00:22:49;;;;;;;0.10;0.10;;;14.20;99.90;;;;;;5144017;27;20047;-68
2023/06/30 00:25:15;;;;;;;0.03;0.03;;;14.20;99.90;;;;;;5143301;27;20046;-69
2023/06/30 00:27:40;;;;;;;0.32;0.32;;;14.20;99.90;;;;;;5143466;27;20047;-69
2023/06/30 00:30:07;;;;;;;0.10;0.10;;;14.10;99.90;;;;;;5145484;27;20635;-68
2023/06/30 00:32:32;;;;;;;0.13;0.13;;;14.10;99.90;;;;;;5149006;27;20076;-69
2023/06/30 00:34:59;;;;;;;0.00;0.00;;;14.10;99.90;;;;;;5146672;27;20039;-69
2023/06/30 00:37:25;;;;;;;0.00;0.00;;;14.10;99.90;;;;;;5142509;27;20057;-69
2023/06/30 00:39:50;;;;;;;0.00;0.00;;;14.10;99.90;;;;;;5147403;27;20031;-68
2023/06/30 00:42:16;;;;;;;0.00;0.00;;;14.00;99.90;;;;;;5145182;27;20050;-68
2023/06/30 00:44:42;;;;;;;0.00;0.00;;;14.00;99.90;;;;;;5118926;27;20337;-68
2023/06/30 00:47:08;;;;;;;0.00;0.00;;;14.00;99.90;;;;;;5152779;27;20027;-69
2023/06/30 00:49:34;;;;;;;0.47;0.47;;;14.00;99.90;;;;;;5152120;27;20062;-68
2023/06/30 00:52:00;;;;;;;0.15;0.15;;;14.00;99.90;;;;;;5149600;27;20038;-68
2023/06/30 00:54:26;;;;;;;0.35;0.35;;;13.90;99.90;;;;;;5142355;27;20460;-69
2023/06/30 00:56:52;;;;;;;0.20;0.20;;;13.90;99.90;;;;;;5151707;27;20079;-68
2023/06/30 00:59:17;;;;;;;0.00;0.00;;;13.90;99.90;;;;;;5153782;27;20051;-68
2023/06/30 01:01:56;;;;;;;0.00;0.00;;;13.90;99.90;;;;;;5139338;27;20070;-69
2023/06/30 01:04:51;;;;;;;0.10;0.10;;;13.90;99.90;;;;;;5149817;27;20103;-68
2023/06/30 01:07:28;;;;;;;0.00;0.00;;;13.90;99.90;;;;;;5145591;27;20478;-68
2023/06/30 01:10:03;;;;;;;0.00;0.00;;;13.80;99.90;;;;;;5138035;27;20868;-68
2023/06/30 01:12:29;;;;;;;0.00;0.00;;;13.90;99.90;;;;;;5152645;27;20038;-69
2023/06/30 01:14:55;;;;;;;0.00;0.00;;;13.80;99.90;;;;;;5153119;27;20057;-69
2023/06/30 01:17:24;;;;;;;0.13;0.13;;;13.80;99.90;;;;;;5139102;27;20039;-68
2023/06/30 01:19:53;;;;;;;0.00;0.00;;;13.80;99.90;;;;;;5145721;27;20091;-69
2023/06/30 01:22:18;;;;;;;0.00;0.00;;;13.80;99.90;;;;;;5143766;27;20074;-68
2023/06/30 01:24:47;;;;;;;0.00;0.00;;;13.80;99.90;;;;;;5126073;27;20090;-68
2023/06/30 01:27:14;;;;;;;0.43;0.32;;;13.80;99.90;;;;;;5131094;27;20054;-69
2023/06/30 01:29:43;;;;;;;0.00;0.00;;;13.80;99.90;;;;;;5150709;27;20042;-68
2023/06/30 01:32:09;;;;;;;0.05;0.05;;;13.70;99.90;;;;;;5129932;27;20055;-68
2023/06/30 01:34:35;;;;;;;0.10;0.10;;;13.70;99.90;;;;;;5145699;27;20043;-68
2023/06/30 01:37:01;;;;;;;0.00;0.00;;;13.70;99.90;;;;;;5129610;27;20035;-69
2023/06/30 01:39:26;;;;;;;0.00;0.00;;;13.70;99.90;;;;;;5143736;27;20042;-69
2023/06/30 01:41:53;;;;;;;2.28;1.38;;;13.70;99.90;;;;;;5152655;27;20245;-69
2023/06/30 01:44:19;;;;;;;0.00;0.00;;;13.60;99.90;;;;;;5142874;27;20081;-68
2023/06/30 01:46:45;;;;;;;0.00;0.00;;;13.60;99.90;;;;;;5131009;27;20046;-67
2023/06/30 01:49:12;;;;;;;0.05;0.05;;;13.60;99.90;;;;;;5142123;27;20043;-69
2023/06/30 01:51:38;;;;;;;0.00;0.00;;;13.50;99.90;;;;;;5150230;27;20504;-68
2023/06/30 01:54:04;;;;;;;0.00;0.00;;;13.60;99.90;;;;;;5149234;27;20038;-69
2023/06/30 01:56:29;;;;;;;0.20;0.20;;;13.50;99.90;;;;;;5124444;27;20133;-68
2023/06/30 01:58:55;;;;;;;0.85;0.57;;;13.60;99.90;;;;;;5143537;27;20037;-68
2023/06/30 02:01:20;;;;;;;0.00;0.00;;;13.60;99.90;;;;;;5147420;27;20049;-68
2023/06/30 02:03:48;;;;;;;0.05;0.05;;;13.50;99.90;;;;;;5124994;27;20627;-68
2023/06/30 02:06:14;;;;;;;0.20;0.20;;;13.60;99.90;;;;;;5142285;27;20443;-68
2023/06/30 02:08:39;;;;;;;0.70;0.70;;;13.60;99.90;;;;;;5139261;27;20046;-68
2023/06/30 02:11:05;;;;;;;0.00;0.00;;;13.50;99.90;;;;;;5131313;27;20035;-68
2023/06/30 02:13:30;;;;;;;0.20;0.20;;;13.60;99.90;;;;;;5137756;27;20479;-68
2023/06/30 02:15:56;;;;;;;0.00;0.00;;;13.60;99.90;;;;;;5149869;27;20444;-68
2023/06/30 02:18:22;;;;;;;0.08;0.08;;;13.50;99.90;;;;;;5151102;27;20043;-69
2023/06/30 02:20:47;;;;;;;0.10;0.10;;;13.50;99.90;;;;;;5137869;27;20037;-68
2023/06/30 02:23:13;;;;;;;0.10;0.10;;;13.50;99.90;;;;;;5144263;27;20078;-68
2023/06/30 02:25:39;;;;;;;0.00;0.00;;;13.50;99.90;;;;;;5140266;27;20047;-68
2023/06/30 02:28:04;;;;;;;0.10;0.10;;;13.50;99.90;;;;;;5145894;27;20076;-68
2023/06/30 02:30:30;;;;;;;0.65;0.65;;;13.50;99.90;;;;;;5148846;27;20383;-68
2023/06/30 02:32:55;;;;;;;0.20;0.20;;;13.40;99.90;;;;;;5145388;27;20055;-68
2023/06/30 02:35:21;;;;;;;0.00;0.00;;;13.40;99.90;;;;;;5149866;27;20091;-68
2023/06/30 02:37:47;;;;;;;0.00;0.00;;;13.40;99.90;;;;;;5148554;27;20047;-67
2023/06/30 02:40:12;;;;;;;0.10;0.10;;;13.40;99.90;;;;;;5141297;27;20046;-68
2023/06/30 02:42:38;;;;;;;1.77;1.65;;;13.40;99.90;;;;;;5136143;27;20039;-68
2023/06/30 02:45:04;;;;;;;0.03;0.03;;;13.40;99.90;;;;;;5141028;27;20390;-66
2023/06/30 02:47:30;;;;;;;0.00;0.00;;;13.50;99.90;;;;;;5145568;27;20429;-68
2023/06/30 02:49:56;;;;;;;0.10;0.10;;;13.40;99.90;;;;;;5144877;27;20053;-68
2023/06/30 02:52:21;;;;;;;0.10;0.10;;;13.40;99.90;;;;;;5130525;27;20045;-68
2023/06/30 02:54:47;;;;;;;0.00;0.00;;;13.30;99.90;;;;;;5144398;27;20043;-68
2023/06/30 02:57:13;;;;;;;0.00;0.00;;;13.30;99.90;;;;;;5141549;27;20122;-68
2023/06/30 02:59:39;;;;;;;0.00;0.00;;;13.30;99.90;;;;;;5148013;27;20057;-68
2023/06/30 03:02:04;;;;;;;0.10;0.10;;;13.30;99.90;;;;;;5141706;27;20038;-68
2023/06/30 03:04:30;;;;;;;0.52;0.52;;;13.30;99.90;;;;;;5144603;27;20039;-68
2023/06/30 03:06:55;;;;;;;0.10;0.10;;;13.30;99.90;;;;;;5139819;27;20039;-68
2023/06/30 03:09:21;;;;;;;0.10;0.10;;;13.30;99.90;;;;;;5129955;27;20082;-68
2023/06/30 03:11:46;;;;;;;0.10;0.10;;;13.30;99.90;;;;;;5141715;27;20493;-69
2023/06/30 03:14:12;;;;;;;0.17;0.17;;;13.20;99.90;;;;;;5141265;27;20100;-68
2023/06/30 03:16:38;;;;;;;0.00;0.00;;;13.20;99.90;;;;;;5142988;27;20386;-68
2023/06/30 03:19:03;;;;;;;0.05;0.05;;;13.20;99.90;;;;;;5145613;27;20050;-68
2023/06/30 03:21:29;;;;;;;0.00;0.00;;;13.20;99.90;;;;;;5137709;27;20179;-68
2023/06/30 03:23:54;;;;;;;0.00;0.00;;;13.10;99.90;;;;;;5145060;27;20050;-68
2023/06/30 03:26:20;;;;;;;0.20;0.20;;;13.20;99.90;;;;;;5144744;27;20114;-68
2023/06/30 03:28:46;;;;;;;0.32;0.32;;;13.30;99.90;;;;;;5130073;27;20435;-68
2023/06/30 03:31:11;;;;;;;0.30;0.30;;;13.20;99.90;;;;;;5144100;27;20042;-68
2023/06/30 03:33:37;;;;;;;0.00;0.00;;;13.20;99.90;;;;;;5137978;27;20223;-68
2023/06/30 03:36:03;;;;;;;0.10;0.10;;;13.30;99.90;;;;;;5143152;27;20108;-68
2023/06/30 03:38:28;;;;;;;0.00;0.00;;;13.20;99.90;;;;;;5149369;27;20827;-68
2023/06/30 03:40:54;;;;;;;0.52;0.52;;;13.20;99.90;;;;;;5137254;27;20031;-68
2023/06/30 03:43:23;;;;;;;0.00;0.00;;;13.20;99.90;;;;;;5145541;27;20042;-68
2023/06/30 03:45:50;;;;;;;0.10;0.10;;;13.20;99.90;;;;;;5139648;27;22549;-68
2023/06/30 03:48:16;;;;;;;0.05;0.05;;;13.30;99.90;;;;;;5144687;27;20123;-68
2023/06/30 03:50:43;;;;;;;0.70;0.47;;;13.20;99.90;;;;;;5135317;27;20081;-68
2023/06/30 03:53:09;;;;;;;0.00;0.00;;;13.20;99.90;;;;;;5141922;27;20043;-68
2023/06/30 03:55:34;;;;;;;0.00;0.00;;;13.20;99.90;;;;;;5147656;27;20034;-68
2023/06/30 03:58:00;;;;;;;0.85;0.22;;;13.30;99.90;;;;;;5119014;28;20076;-68
2023/06/30 04:00:25;;;;;;;1.45;0.40;;;13.40;99.90;;;;;;5143015;27;20047;-68
2023/06/30 04:02:51;;;;;;;28.58;0.77;;;13.40;99.90;;;;;;5146922;27;20518;-68
2023/06/30 04:05:17;;;;;;;0.20;0.20;;;13.50;99.90;;;;;;5136071;27;20047;-68
2023/06/30 04:07:42;;;;;;;0.75;0.65;;;13.50;99.90;;;;;;5138533;27;20121;-68
2023/06/30 04:10:08;;;;;;;0.05;0.05;;;13.50;99.90;;;;;;5149665;27;20468;-68
2023/06/30 04:12:34;;;;;;;0.10;0.10;;;13.60;99.90;;;;;;5143988;27;20393;-68
2023/06/30 04:15:00;;;;;;;0.65;0.47;;;13.60;99.90;;;;;;5145110;27;20042;-68
2023/06/30 04:17:26;;;;;;;0.00;0.00;;;13.70;99.90;;;;;;5149474;27;20062;-68
2023/06/30 04:19:51;;;;;;;10.63;0.82;;;13.70;99.90;;;;;;5143776;27;20393;-68
2023/06/30 04:22:17;;;;;;;0.00;0.00;;;13.80;99.90;;;;;;5145793;27;20099;-68
2023/06/30 04:24:42;;;;;;;0.10;0.10;;;13.90;99.90;;;;;;5144332;27;20594;-68
2023/06/30 04:27:08;;;;;;;0.05;0.05;;;13.80;99.90;;;;;;5151722;27;20123;-68
2023/06/30 04:29:33;;;;;;;0.00;0.00;;;13.80;99.90;;;;;;5153515;27;20066;-68
2023/06/30 04:31:59;;;;;;;0.00;0.00;;;13.90;99.90;;;;;;5143864;27;20638;-68
2023/06/30 04:34:25;;;;;;;0.00;0.00;;;13.90;99.90;;;;;;5150559;27;20047;-68
2023/06/30 04:36:51;;;;;;;0.10;0.10;;;13.90;99.90;;;;;;5147574;27;20739;-68
2023/06/30 04:39:16;;;;;;;0.00;0.00;;;13.90;99.90;;;;;;5144538;27;20046;-68
2023/06/30 04:41:42;;;;;;;1.48;0.52;;;14.00;99.90;;;;;;5148827;27;20163;-68
2023/06/30 04:44:07;;;;;;;0.00;0.00;;;14.00;99.90;;;;;;5150577;27;20034;-68
2023/06/30 04:46:33;;;;;;;0.10;0.10;;;14.10;99.90;;;;;;5140735;27;20504;-68
2023/06/30 04:49:00;;;;;;;0.00;0.00;;;14.10;99.90;;;;;;5151576;27;20114;-68
2023/06/30 04:51:26;;;;;;;0.05;0.05;;;14.10;99.90;;;;;;5150148;27;20045;-68
2023/06/30 04:53:53;;;;;;;0.00;0.00;;;14.20;99.90;;;;;;5145440;27;20042;-68
2023/06/30 04:56:19;;;;;;;0.00;0.00;;;14.20;99.90;;;;;;5143399;27;20058;-68
2023/06/30 04:58:45;;;;;;;1.17;0.95;;;14.20;99.90;;;;;;5148324;27;20046;-68
2023/06/30 05:01:11;;;;;;;0.10;0.10;;;14.30;99.90;;;;;;5149852;27;20035;-68
2023/06/30 05:03:36;;;;;;;0.00;0.00;;;14.30;99.90;;;;;;5136009;27;20123;-68
2023/06/30 05:06:02;;;;;;;0.00;0.00;;;14.40;99.90;;;;;;5143305;27;20386;-68
2023/06/30 05:08:28;;;;;;;0.00;0.00;;;14.40;99.90;;;;;;5144123;27;20070;-68
2023/06/30 05:10:53;;;;;;;0.00;0.00;;;14.40;99.90;;;;;;5146258;27;20039;-68
2023/06/30 05:13:19;;;;;;;0.00;0.00;;;14.50;99.90;;;;;;5151233;27;20082;-68
2023/06/30 05:15:45;;;;;;;0.10;0.10;;;14.60;99.90;;;;;;5143690;27;20042;-68
2023/06/30 05:18:10;;;;;;;0.13;0.13;;;14.60;99.90;;;;;;5126288;27;20075;-68
2023/06/30 05:20:39;;;;;;;0.00;0.00;;;14.70;99.90;;;;;;5130246;27;20715;-68
2023/06/30 05:23:04;;;;;;;0.00;0.00;;;14.70;99.90;;;;;;5145726;27;20043;-69
2023/06/30 05:25:30;;;;;;;0.20;0.20;;;14.80;99.90;;;;;;5147104;27;20043;-68
2023/06/30 05:27:56;;;;;;;0.10;0.10;;;14.80;99.90;;;;;;5151802;27;20066;-68
2023/06/30 05:30:21;;;;;;;0.00;0.00;;;14.90;99.90;;;;;;5142299;27;20043;-68
2023/06/30 05:32:47;;;;;;;0.00;0.00;;;15.00;99.90;;;;;;5149200;27;20050;-68
2023/06/30 05:35:12;;;;;;;0.00;0.00;;;15.10;99.90;;;;;;5132688;27;20075;-68
2023/06/30 05:37:38;;;;;;;0.00;0.00;;;15.10;99.90;;;;;;5149850;27;20474;-69
2023/06/30 05:40:04;;;;;;;0.00;0.00;;;15.20;99.90;;;;;;5117110;27;20042;-68
2023/06/30 05:42:30;;;;;;;0.00;0.00;;;15.30;99.90;;;;;;5133522;27;20811;-68
2023/06/30 05:44:55;;;;;;;0.00;0.00;;;15.40;99.90;;;;;;5145794;27;20039;-68
2023/06/30 05:47:21;;;;;;;0.00;0.00;;;15.40;99.90;;;;;;5143272;27;20039;-68
2023/06/30 05:49:46;;;;;;;0.00;0.00;;;15.50;99.90;;;;;;5150075;27;20038;-69
2023/06/30 05:52:12;;;;;;;0.00;0.00;;;15.50;99.90;;;;;;5151197;27;20083;-68
2023/06/30 05:54:38;;;;;;;0.00;0.00;;;15.60;99.90;;;;;;5146383;27;20050;-68
2023/06/30 05:57:04;;;;;;;0.00;0.00;;;15.70;99.90;;;;;;5146450;27;20150;-69
2023/06/30 05:59:30;;;;;;;0.17;0.17;;;15.80;99.90;;;;;;5148532;27;20064;-69
2023/06/30 06:01:56;;;;;;;3.30;1.05;;;15.80;99.90;;;;;;5119634;27;20051;-69
2023/06/30 06:04:22;;;;;;;0.03;0.03;;;15.90;99.90;;;;;;5141340;27;20046;-69
2023/06/30 06:06:47;;;;;;;0.00;0.00;;;15.90;99.90;;;;;;5145497;27;20034;-69
2023/06/30 06:09:13;;;;;;;0.00;0.00;;;15.90;99.90;;;;;;5144117;27;20057;-69
2023/06/30 06:11:39;;;;;;;0.00;0.00;;;16.00;99.90;;;;;;5147950;27;20150;-68
2023/06/30 06:14:05;;;;;;;0.00;0.00;;;16.10;99.90;;;;;;5143929;27;20067;-68
2023/06/30 06:16:30;;;;;;;0.00;0.00;;;16.10;99.90;;;;;;5147904;27;20103;-68
2023/06/30 06:18:56;;;;;;;0.00;0.00;;;16.20;99.90;;;;;;5118747;27;20513;-69
2023/06/30 06:21:28;;;;;;;0.43;0.35;;;16.10;99.90;;;;;;5139835;27;20046;-69
2023/06/30 06:23:54;;;;;;;0.00;0.00;;;16.10;99.90;;;;;;5146687;27;20057;-69
2023/06/30 06:26:20;;;;;;;0.10;0.10;;;16.10;99.90;;;;;;5149301;27;20088;-69
2023/06/30 06:28:46;;;;;;;0.00;0.00;;;16.10;99.90;;;;;;5144729;27;20101;-69
2023/06/30 06:31:11;;;;;;;0.10;0.10;;;16.10;99.90;;;;;;5147261;27;20793;-69
2023/06/30 06:33:37;;;;;;;0.00;0.00;;;16.10;99.90;;;;;;5137971;27;20042;-68
2023/06/30 06:36:03;;;;;;;0.52;0.52;;;16.20;99.90;;;;;;5150995;27;20099;-69
2023/06/30 06:38:28;;;;;;;0.00;0.00;;;16.20;99.90;;;;;;5148425;27;20103;-69
2023/06/30 06:40:54;;;;;;;0.00;0.00;;;16.30;99.90;;;;;;5138711;27;20038;-69
2023/06/30 06:43:25;;;;;;;0.00;0.00;;;16.30;99.90;;;;;;5131012;27;20073;-69
2023/06/30 06:45:51;;;;;;;0.20;0.20;;;16.30;99.90;;;;;;5148719;27;20038;-69
2023/06/30 06:48:27;;;;;;;0.00;0.00;;;16.30;99.90;;;;;;5145867;27;20111;-69
2023/06/30 06:51:01;;;;;;;0.00;0.00;;;16.30;99.90;;;;;;5147809;27;20039;-69
2023/06/30 06:53:28;;;;;;;0.00;0.00;;;16.30;99.90;;;;;;5150813;27;20034;-69
2023/06/30 06:55:55;;;;;;;0.00;0.00;;;16.30;99.90;;;;;;5140224;27;20078;-69
2023/06/30 06:58:22;;;;;;;0.00;0.00;;;16.30;99.90;;;;;;5147126;27;20473;-69
2023/06/30 07:00:49;;;;;;;0.00;0.00;;;16.30;99.90;;;;;;5129560;27;20062;-69
2023/06/30 07:03:16;;;;;;;0.10;0.10;;;16.30;99.90;;;;;;5137740;27;20128;-69
2023/06/30 07:05:43;;;;;;;0.00;0.00;;;16.40;99.90;;;;;;5151546;27;20049;-69
2023/06/30 07:08:10;;;;;;;0.63;0.45;;;16.50;99.90;;;;;;5137623;27;20057;-69
2023/06/30 07:10:36;;;;;;;0.00;0.00;;;16.60;99.90;;;;;;5143692;27;20161;-70
2023/06/30 07:13:03;;;;;;;0.00;0.00;;;16.70;99.90;;;;;;5145589;27;20106;-69
2023/06/30 07:15:29;;;;;;;0.00;0.00;;;16.70;99.90;;;;;;5147956;27;20485;-69
2023/06/30 07:17:56;;;;;;;0.63;0.57;;;16.80;99.90;;;;;;5128924;27;20035;-69
2023/06/30 07:20:22;;;;;;;0.00;0.00;;;16.80;99.90;;;;;;5143589;27;20067;-70
2023/06/30 07:22:48;;;;;;;1.40;0.40;;;16.80;99.90;;;;;;5150965;27;20058;-70
2023/06/30 07:25:14;;;;;;;0.00;0.00;;;16.90;99.90;;;;;;5145559;27;20039;-70
2023/06/30 07:27:39;;;;;;;0.00;0.00;;;17.00;99.90;;;;;;5139400;27;20479;-70
2023/06/30 07:30:06;;;;;;;0.10;0.10;;;17.00;99.90;;;;;;5147357;27;20394;-70
2023/06/30 07:32:34;;;;;;;0.00;0.00;;;17.10;99.90;;;;;;5146568;27;20111;-70
2023/06/30 07:35:03;;;;;;;0.15;0.15;;;17.20;99.90;;;;;;5140787;27;20035;-70
2023/06/30 07:37:29;;;;;;;0.00;0.00;;;17.20;99.90;;;;;;5135853;27;20065;-70
2023/06/30 07:39:55;;;;;;;0.10;0.10;;;17.30;99.90;;;;;;5148891;27;20051;-70
2023/06/30 07:42:21;;;;;;;0.00;0.00;;;17.30;99.90;;;;;;5137443;27;20046;-70
2023/06/30 07:44:49;;;;;;;0.00;0.00;;;17.40;99.90;;;;;;5133517;27;20478;-70
2023/06/30 07:47:15;;;;;;;0.00;0.00;;;17.50;99.90;;;;;;5140194;27;20055;-71
2023/06/30 07:49:41;;;;;;;0.00;0.00;;;17.50;99.90;;;;;;5143131;27;20089;-69
2023/06/30 07:52:07;;;;;;;0.20;0.20;;;17.60;99.90;;;;;;5146808;27;20111;-69
2023/06/30 07:54:32;;;;;;;2.63;1.08;;;17.70;99.90;;;;;;5138767;27;20047;-70
2023/06/30 07:56:58;;;;;;;0.00;0.00;;;17.70;99.90;;;;;;5138296;27;20031;-69
2023/06/30 07:59:23;;;;;;;0.05;0.05;;;17.80;99.90;;;;;;5120136;27;20047;-69
2023/06/30 08:01:49;;;;;;;0.00;0.00;;;17.80;99.90;;;;;;5131052;27;20030;-69
2023/06/30 08:04:16;;;;;;;1.45;0.60;;;17.90;99.90;;;;;;5143924;27;20038;-70
2023/06/30 08:06:41;;;;;;;18.10;1.65;;;17.90;99.90;;;;;;5148816;27;20039;-69
2023/06/30 08:09:07;;;;;;;2.78;1.30;;;18.00;99.90;;;;;;5149638;27;20076;-69
2023/06/30 08:11:32;;;;;;;0.00;0.00;;;18.00;99.90;;;;;;5142998;27;20047;-69
2023/06/30 08:14:00;;;;;;;0.00;0.00;;;18.00;99.90;;;;;;5141931;27;20030;-69
2023/06/30 08:16:25;;;;;;;0.08;0.08;;;18.00;99.90;;;;;;5144180;27;20043;-71
2023/06/30 08:18:51;;;;;;;0.00;0.00;;;18.10;99.90;;;;;;5143031;27;20043;-71
2023/06/30 08:21:17;;;;;;;0.00;0.00;;;18.20;99.90;;;;;;5141166;27;20087;-71
2023/06/30 08:23:42;;;;;;;1.00;0.38;;;18.20;99.90;;;;;;5138942;27;20053;-71
2023/06/30 08:26:08;;;;;;;0.10;0.10;;;18.30;99.90;;;;;;5136610;27;20031;-71
2023/06/30 08:28:34;;;;;;;0.00;0.00;;;18.40;99.90;;;;;;5135942;27;20121;-71
2023/06/30 08:30:59;;;;;;;0.00;0.00;;;18.50;99.90;;;;;;5143111;27;20641;-72
2023/06/30 08:33:29;;;;;;;0.00;0.00;;;18.40;99.90;;;;;;5143885;27;20091;-73
2023/06/30 08:35:55;;;;;;;0.00;0.00;;;18.50;99.90;;;;;;5149304;27;20042;-72
2023/06/30 08:38:20;;;;;;;12.40;0.38;;;18.50;99.90;;;;;;5142767;27;20516;-72
2023/06/30 08:40:46;;;;;;;0.00;0.00;;;18.60;99.90;;;;;;5131453;27;20039;-72
2023/06/30 08:43:12;;;;;;;0.00;0.00;;;18.60;99.90;;;;;;5135170;27;20182;-71
2023/06/30 08:45:43;;;;;;;0.00;0.00;;;18.60;99.90;;;;;;5138689;27;20039;-71
2023/06/30 08:48:11;;;;;;;0.00;0.00;;;18.70;99.90;;;;;;5147757;27;20058;-71
2023/06/30 08:50:38;;;;;;;0.00;0.00;;;18.80;99.90;;;;;;5139729;27;20038;-72
2023/06/30 08:53:04;;;;;;;0.00;0.00;;;18.90;99.90;;;;;;5146676;27;20043;-72
2023/06/30 08:55:30;;;;;;;0.03;0.03;;;19.00;99.90;;;;;;5143798;27;20038;-72
2023/06/30 08:57:57;;;;;;;0.00;0.00;;;19.00;99.90;;;;;;5146385;27;20118;-72
2023/06/30 09:00:23;;;;;;;0.05;0.05;;;18.90;99.90;;;;;;5135362;27;20501;-71
2023/06/30 09:02:50;;;;;;;1.13;0.40;;;18.90;99.90;;;;;;5136732;27;20057;-72
2023/06/30 09:05:15;;;;;;;0.10;0.10;;;18.80;99.90;;;;;;5150027;27;20057;-72
2023/06/30 09:07:55;;;;;;;0.03;0.03;;;18.70;99.90;;;;;;5134644;27;20494;-72
2023/06/30 09:10:27;;;;;;;0.85;0.47;;;18.90;99.90;;;;;;5140516;27;20549;-72
2023/06/30 09:12:57;;;;;;;0.00;0.00;;;19.00;99.90;;;;;;5150101;27;20498;-72
2023/06/30 09:15:26;;;;;;;0.00;0.00;;;19.10;99.90;;;;;;5135182;27;20078;-71
2023/06/30 09:17:53;;;;;;;0.10;0.10;;;19.10;99.90;;;;;;5145033;27;20041;-71
2023/06/30 09:20:20;;;;;;;0.40;0.40;;;19.20;99.90;;;;;;5127063;27;20064;-71
2023/06/30 09:22:46;;;;;;;0.20;0.20;;;19.20;99.90;;;;;;5132479;27;20064;-71
2023/06/30 09:25:27;;;;;;;0.00;0.00;;;19.30;99.90;;;;;;5123487;27;20042;-72
2023/06/30 09:27:54;;;;;;;0.98;0.55;;;19.40;99.90;;;;;;5145791;27;20251;-71
2023/06/30 09:30:36;;;;;;;0.00;0.00;;;19.60;99.90;;;;;;5140171;27;20058;-71
2023/06/30 09:33:02;;;;;;;0.00;0.00;;;19.70;99.90;;;;;;5150265;27;20122;-71
2023/06/30 09:35:42;;;;;;;0.20;0.20;;;19.70;99.90;;;;;;5151721;27;20511;-70
2023/06/30 09:38:16;;;;;;;0.00;0.00;;;19.70;99.90;;;;;;5152882;27;20061;-72
2023/06/30 09:40:49;;;;;;;0.00;0.00;;;19.80;99.90;;;;;;5143225;27;20399;-72
2023/06/30 09:43:19;;;;;;;0.00;0.00;;;19.80;99.90;;;;;;5151232;27;20053;-72
2023/06/30 09:45:46;;;;;;;0.20;0.20;;;19.80;99.90;;;;;;5144603;27;20398;-70
2023/06/30 09:48:13;;;;;;;0.00;0.00;;;19.80;99.90;;;;;;5140432;27;20055;-71
2023/06/30 09:50:38;;;;;;;0.00;0.00;;;20.10;99.90;;;;;;5144277;27;20046;-71
2023/06/30 09:53:05;;;;;;;0.00;0.00;;;20.50;99.90;;;;;;5152357;27;20107;-71
2023/06/30 09:55:30;;;;;;;0.10;0.10;;;20.70;99.90;;;;;;5137939;27;20114;-71
2023/06/30 09:57:56;;;;;;;0.20;0.20;;;20.60;99.90;;;;;;5147488;27;20533;-71
2023/06/30 10:00:23;;;;;;;0.10;0.10;;;20.40;99.90;;;;;;5151136;27;20050;-71
2023/06/30 10:03:08;;;;;;;0.00;0.00;;;20.60;99.90;;;;;;5144046;27;20085;-71
2023/06/30 10:05:35;;;;;;;0.00;0.00;;;21.00;99.90;;;;;;5145506;27;20130;-71
2023/06/30 10:08:02;;;;;;;0.00;0.00;;;21.20;99.90;;;;;;5124915;27;20069;-71
2023/06/30 10:10:31;;;;;;;4.10;1.65;;;21.20;99.90;;;;;;5151918;27;20131;-71
2023/06/30 10:12:58;;;;;;;0.05;0.05;;;21.10;99.90;;;;;;5151648;27;20047;-71
2023/06/30 10:15:25;;;;;;;0.20;0.20;;;20.80;99.90;;;;;;5134785;27;20043;-71
2023/06/30 10:17:52;;;;;;;0.00;0.00;;;20.90;99.90;;;;;;5148347;27;20089;-71
2023/06/30 10:20:18;;;;;;;0.00;0.00;;;21.10;99.90;;;;;;5139707;27;20046;-71
2023/06/30 10:22:45;;;;;;;0.10;0.10;;;21.30;99.90;;;;;;5140253;27;20043;-70
2023/06/30 10:25:13;;;;;;;0.08;0.08;;;21.30;99.90;;;;;;5152214;27;20067;-71
2023/06/30 10:27:39;;;;;;;0.65;0.55;;;21.10;99.90;;;;;;5117328;27;20443;-71
2023/06/30 10:30:06;;;;;;;0.00;0.00;;;20.80;99.90;;;;;;5122718;27;20070;-71
2023/06/30 10:32:32;;;;;;;0.00;0.00;;;21.00;99.90;;;;;;5143227;27;20119;-71
2023/06/30 10:34:59;;;;;;;0.10;0.10;;;21.10;99.90;;;;;;5126594;27;20474;-71
2023/06/30 10:37:26;;;;;;;0.00;0.00;;;21.10;99.90;;;;;;5146830;27;20046;-72
2023/06/30 10:39:51;;;;;;;0.20;0.20;;;21.00;99.90;;;;;;5135221;27;20075;-72
2023/06/30 10:42:20;;;;;;;0.00;0.00;;;21.00;99.90;;;;;;5152455;27;20098;-72
2023/06/30 10:44:47;;;;;;;0.10;0.10;;;20.80;99.90;;;;;;5148520;27;20051;-72
2023/06/30 10:47:14;;;;;;;0.20;0.10;;;20.70;99.90;;;;;;5142676;27;20040;-73
2023/06/30 10:49:40;;;;;;;0.08;0.08;;;20.70;99.90;;;;;;5144751;27;20401;-73
2023/06/30 10:52:26;;;;;;;0.10;0.10;;;20.80;99.90;;;;;;5150085;27;20039;-72
2023/06/30 10:54:52;;;;;;;0.00;0.00;;;20.90;99.90;;;;;;5142407;27;20038;-72
2023/06/30 10:57:19;;;;;;;0.00;0.00;;;21.10;99.90;;;;;;5141212;27;20049;-72
2023/06/30 10:59:47;;;;;;;2.40;0.65;;;21.20;99.90;;;;;;5132386;27;20082;-71
2023/06/30 11:02:16;;;;;;;0.00;0.00;;;21.20;99.90;;;;;;5137119;27;20155;-71
2023/06/30 11:04:43;;;;;;;0.00;0.00;;;21.00;99.90;;;;;;5142785;27;20039;-72
2023/06/30 11:07:10;;;;;;;0.08;0.08;;;21.20;99.90;;;;;;5120813;27;20043;-72
2023/06/30 11:10:00;;;;;;;0.20;0.20;;;21.40;99.90;;;;;;5125119;27;20049;-73
2023/06/30 11:12:27;;;;;;;0.00;0.00;;;21.60;99.90;;;;;;5137905;27;20673;-72
2023/06/30 11:14:55;;;;;;;0.00;0.00;;;21.30;99.90;;;;;;5136453;27;20466;-71
2023/06/30 11:17:22;;;;;;;0.00;0.00;;;21.30;99.90;;;;;;5151817;27;20046;-71
2023/06/30 11:20:11;;;;;;;0.00;0.00;;;21.50;99.90;;;;;;5138230;27;20475;-72
2023/06/30 11:22:41;;;;;;;0.55;0.47;;;21.50;99.90;;;;;;5140067;27;20084;-72
2023/06/30 11:25:10;;;;;;;0.70;0.50;;;21.40;99.90;;;;;;5137814;27;20042;-73
2023/06/30 11:27:37;;;;;;;0.00;0.00;;;21.60;99.90;;;;;;5136884;27;20084;-72
2023/06/30 11:30:04;;;;;;;1.55;0.90;;;21.70;99.90;;;;;;5142005;27;20087;-73
2023/06/30 11:32:32;;;;;;;0.05;0.05;;;21.90;99.90;;;;;;5144577;27;20435;-73
2023/06/30 11:34:59;;;;;;;0.00;0.00;;;22.30;99.90;;;;;;5139420;27;20831;-73
2023/06/30 11:37:26;;;;;;;0.00;0.00;;;22.40;99.90;;;;;;5145738;27;20426;-72
2023/06/30 11:39:56;;;;;;;0.00;0.00;;;22.20;99.90;;;;;;5139200;27;20043;-72
2023/06/30 11:42:23;;;;;;;0.00;0.00;;;21.80;99.90;;;;;;5145388;27;20043;-73
2023/06/30 11:44:49;;;;;;;0.00;0.00;;;22.00;99.90;;;;;;5151612;27;20049;-73
2023/06/30 11:47:15;;;;;;;0.00;0.00;;;22.40;99.90;;;;;;5133660;27;20071;-73
2023/06/30 11:49:41;;;;;;;0.00;0.00;;;22.40;99.90;;;;;;5149555;27;20042;-73
2023/06/30 11:52:07;;;;;;;0.03;0.03;;;22.60;99.90;;;;;;5149989;27;20057;-72
2023/06/30 11:54:33;;;;;;;0.00;0.00;;;23.00;99.90;;;;;;5121103;27;20062;-72
2023/06/30 11:57:00;;;;;;;0.00;0.00;;;22.90;99.90;;;;;;5141026;27;20034;-72
2023/06/30 11:59:26;;;;;;;0.03;0.03;;;22.80;99.90;;;;;;5140467;27;20043;-72
2023/06/30 12:01:52;;;;;;;0.10;0.10;;;22.90;99.90;;;;;;5140808;27;20039;-72
2023/06/30 12:04:18;;;;;;;0.00;0.00;;;22.80;99.90;;;;;;5149591;27;20039;-72
2023/06/30 12:06:45;;;;;;;0.00;0.00;;;23.00;99.90;;;;;;5136161;27;20035;-72
2023/06/30 12:09:11;;;;;;;0.00;0.00;;;23.30;99.90;;;;;;5145643;27;20042;-72
2023/06/30 12:11:40;;;;;;;0.00;0.00;;;23.00;99.90;;;;;;5141524;27;20038;-72
2023/06/30 12:14:10;;;;;;;0.00;0.00;;;23.00;99.90;;;;;;5139231;27;20047;-72
2023/06/30 12:16:49;;;;;;;0.00;0.00;;;22.90;99.90;;;;;;5138330;27;20035;-72
2023/06/30 12:19:15;;;;;;;0.00;0.00;;;22.60;99.90;;;;;;5144510;27;20050;-72
2023/06/30 12:22:12;;;;;;;0.00;0.00;;;22.40;99.90;;;;;;5145049;27;20047;-72
2023/06/30 12:24:42;;;;;;;0.00;0.00;;;22.50;99.90;;;;;;5126973;27;20510;-72
2023/06/30 12:27:08;;;;;;;1.85;0.15;;;22.70;99.90;;;;;;5150356;27;20027;-72
2023/06/30 12:29:35;;;;;;;0.00;0.00;;;23.00;99.90;;;;;;5141907;27;20047;-72
2023/06/30 12:32:24;;;;;;;0.10;0.10;;;23.40;99.90;;;;;;5141507;27;20058;-72
2023/06/30 12:34:58;;;;;;;1.02;1.02;;;22.90;99.90;;;;;;5139302;27;20050;-71
2023/06/30 12:37:28;;;;;;;0.00;0.00;;;22.60;99.90;;;;;;5128271;27;20039;-72
2023/06/30 12:39:54;;;;;;;0.00;0.00;;;22.40;99.90;;;;;;5146023;27;20051;-72
2023/06/30 12:42:22;;;;;;;0.30;0.30;;;22.40;99.90;;;;;;5128323;27;20160;-72
2023/06/30 12:44:48;;;;;;;0.00;0.00;;;22.40;99.90;;;;;;5153001;27;20057;-72